sensor_id;sensor_type;location;lat;lon;timestamp;pressure;altitude;pressure_sealevel;temperature;humidity
11190;BME280;5651;50.926;4.718;2023-02-13T00:00:07;103527.94;;;1.63;100.00
11190;BME280;5651;50.926;4.718;2023-02-13T00:02:33;103519.09;;;1.60;100.00
11190;BME280;5651;50.926;4.718;2023-02-13T00:04:59;103525.00;;;1.58;100.00
11190;BME280;5651;50.926;4.718;2023-02-13T00:07:24;103518.84;;;1.56;100.00
11190;BME280;5651;50.926;4.718;2023-02-13T00:09:50;103518.50;;;1.52;100.00
11190;BME280;5651;50.926;4.718;2023-02-13T00:12:16;103516.50;;;1.48;100.00
11190;BME280;5651;50.926;4.718;2023-02-13T00:14:42;103521.53;;;1.46;100.00
11190;BME280;5651;50.926;4.718;2023-02-13T00:17:07;103518.59;;;1.41;100.00
11190;BME280;5651;50.926;4.718;2023-02-13T00:19:33;103523.47;;;1.38;100.00
11190;BME280;5651;50.926;4.718;2023-02-13T00:21:59;103532.53;;;1.33;100.00
11190;BME280;5651;50.926;4.718;2023-02-13T00:24:25;103522.78;;;1.29;100.00
11190;BME280;5651;50.926;4.718;2023-02-13T00:26:51;103531.13;;;1.26;100.00
11190;BME280;5651;50.926;4.718;2023-02-13T00:29:16;103524.88;;;1.23;100.00
11190;BME280;5651;50.926;4.718;2023-02-13T00:31:42;103524.66;;;1.20;100.00
11190;BME280;5651;50.926;4.718;2023-02-13T00:34:08;103517.47;;;1.16;100.00
11190;BME280;5651;50.926;4.718;2023-02-13T00:36:34;103522.25;;;1.11;100.00
11190;BME280;5651;50.926;4.718;2023-02-13T00:39:00;103515.19;;;1.08;100.00
11190;BME280;5651;50.926;4.718;2023-02-13T00:41:26;103515.88;;;1.06;100.00
11190;BME280;5651;50.926;4.718;2023-02-13T00:43:52;103510.47;;;1.03;100.00
11190;BME280;5651;50.926;4.718;2023-02-13T00:46:18;103511.28;;;1.02;100.00
11190;BME280;5651;50.926;4.718;2023-02-13T00:48:44;103521.28;;;0.99;100.00
11190;BME280;5651;50.926;4.718;2023-02-13T00:51:10;103516.81;;;0.96;100.00
11190;BME280;5651;50.926;4.718;2023-02-13T00:53:36;103526.84;;;0.93;99.98
11190;BME280;5651;50.926;4.718;2023-02-13T00:56:03;103517.34;;;0.92;100.00
11190;BME280;5651;50.926;4.718;2023-02-13T00:58:30;103520.81;;;0.92;100.00
11190;BME280;5651;50.926;4.718;2023-02-13T01:00:56;103519.03;;;0.91;100.00
11190;BME280;5651;50.926;4.718;2023-02-13T01:03:22;103523.25;;;0.91;100.00
11190;BME280;5651;50.926;4.718;2023-02-13T01:05:49;103521.34;;;0.88;100.00
11190;BME280;5651;50.926;4.718;2023-02-13T01:08:16;103520.19;;;0.85;100.00
11190;BME280;5651;50.926;4.718;2023-02-13T01:10:44;103519.06;;;0.81;100.00
11190;BME280;5651;50.926;4.718;2023-02-13T01:13:13;103515.34;;;0.77;100.00
11190;BME280;5651;50.926;4.718;2023-02-13T01:15:39;103519.34;;;0.74;100.00
11190;BME280;5651;50.926;4.718;2023-02-13T01:18:05;103511.28;;;0.69;100.00
11190;BME280;5651;50.926;4.718;2023-02-13T01:20:31;103516.19;;;0.66;100.00
11190;BME280;5651;50.926;4.718;2023-02-13T01:22:57;103508.13;;;0.61;100.00
11190;BME280;5651;50.926;4.718;2023-02-13T01:25:23;103502.75;;;0.58;100.00
11190;BME280;5651;50.926;4.718;2023-02-13T01:27:49;103512.78;;;0.55;100.00
11190;BME280;5651;50.926;4.718;2023-02-13T01:30:16;103516.75;;;0.52;100.00
11190;BME280;5651;50.926;4.718;2023-02-13T01:32:44;103525.88;;;0.48;100.00
11190;BME280;5651;50.926;4.718;2023-02-13T01:35:11;103519.59;;;0.44;100.00
11190;BME280;5651;50.926;4.718;2023-02-13T01:37:38;103519.25;;;0.40;100.00
11190;BME280;5651;50.926;4.718;2023-02-13T01:40:05;103511.28;;;0.37;100.00
11190;BME280;5651;50.926;4.718;2023-02-13T01:42:33;103511.94;;;0.34;100.00
11190;BME280;5651;50.926;4.718;2023-02-13T01:45:02;103512.59;;;0.31;100.00
11190;BME280;5651;50.926;4.718;2023-02-13T01:47:41;103519.25;;;0.29;100.00
11190;BME280;5651;50.926;4.718;2023-02-13T01:50:14;103522.47;;;0.27;100.00
11190;BME280;5651;50.926;4.718;2023-02-13T01:52:50;103520.78;;;0.27;100.00
11190;BME280;5651;50.926;4.718;2023-02-13T01:55:17;103520.66;;;0.26;100.00
11190;BME280;5651;50.926;4.718;2023-02-13T01:57:51;103521.69;;;0.28;100.00
11190;BME280;5651;50.926;4.718;2023-02-13T02:00:18;103514.88;;;0.28;100.00
11190;BME280;5651;50.926;4.718;2023-02-13T02:02:51;103516.81;;;0.31;100.00
11190;BME280;5651;50.926;4.718;2023-02-13T02:05:21;103511.66;;;0.31;100.00
11190;BME280;5651;50.926;4.718;2023-02-13T02:07:49;103516.81;;;0.31;100.00
11190;BME280;5651;50.926;4.718;2023-02-13T02:10:17;103518.59;;;0.32;100.00
11190;BME280;5651;50.926;4.718;2023-02-13T02:12:48;103513.47;;;0.32;100.00
11190;BME280;5651;50.926;4.718;2023-02-13T02:15:17;103510.03;;;0.31;100.00
11190;BME280;5651;50.926;4.718;2023-02-13T02:17:42;103511.06;;;0.34;100.00
11190;BME280;5651;50.926;4.718;2023-02-13T02:26:15;103501.78;;;0.36;100.00
11190;BME280;5651;50.926;4.718;2023-02-13T02:37:50;103494.34;;;0.39;100.00
11190;BME280;5651;50.926;4.718;2023-02-13T02:51:24;103488.19;;;0.37;100.00
11190;BME280;5651;50.926;4.718;2023-02-13T02:56:39;103493.31;;;0.37;100.00
11190;BME280;5651;50.926;4.718;2023-02-13T02:59:10;103488.97;;;0.36;100.00
11190;BME280;5651;50.926;4.718;2023-02-13T03:01:58;103490.75;;;0.37;100.00
11190;BME280;5651;50.926;4.718;2023-02-13T03:04:50;103488.97;;;0.36;100.00
11190;BME280;5651;50.926;4.718;2023-02-13T03:07:36;103492.44;;;0.36;100.00
11190;BME280;5651;50.926;4.718;2023-02-13T03:10:06;103495.88;;;0.37;100.00
11190;BME280;5651;50.926;4.718;2023-02-13T03:13:15;103492.31;;;0.35;100.00
11190;BME280;5651;50.926;4.718;2023-02-13T03:15:47;103499.22;;;0.36;100.00
11190;BME280;5651;50.926;4.718;2023-02-13T03:18:35;103491.78;;;0.39;100.00
11190;BME280;5651;50.926;4.718;2023-02-13T03:22:01;103499.50;;;0.39;100.00
11190;BME280;5651;50.926;4.718;2023-02-13T03:27:27;103486.88;;;0.42;100.00
11190;BME280;5651;50.926;4.718;2023-02-13T03:33:21;103482.91;;;0.45;100.00
11190;BME280;5651;50.926;4.718;2023-02-13T03:41:15;103486.88;;;0.52;100.00
11190;BME280;5651;50.926;4.718;2023-02-13T03:46:25;103485.53;;;0.57;100.00
11190;BME280;5651;50.926;4.718;2023-02-13T03:48:53;103479.78;;;0.60;100.00
11190;BME280;5651;50.926;4.718;2023-02-13T03:51:43;103476.56;;;0.62;100.00
11190;BME280;5651;50.926;4.718;2023-02-13T03:56:49;103485.63;;;0.69;100.00
11190;BME280;5651;50.926;4.718;2023-02-13T03:59:35;103479.84;;;0.72;100.00
11190;BME280;5651;50.926;4.718;2023-02-13T04:04:35;103478.56;;;0.77;100.00
11190;BME280;5651;50.926;4.718;2023-02-13T04:07:10;103477.88;;;0.79;100.00
11190;BME280;5651;50.926;4.718;2023-02-13T04:09:55;103481.47;;;0.82;100.00
11190;BME280;5651;50.926;4.718;2023-02-13T04:15:31;103486.97;;;0.86;100.00
11190;BME280;5651;50.926;4.718;2023-02-13T04:18:24;103484.53;;;0.88;100.00
11190;BME280;5651;50.926;4.718;2023-02-13T04:20:51;103489.88;;;0.91;100.00
11190;BME280;5651;50.926;4.718;2023-02-13T04:23:18;103490.03;;;0.92;100.00
11190;BME280;5651;50.926;4.718;2023-02-13T04:25:47;103482.16;;;0.91;100.00
11190;BME280;5651;50.926;4.718;2023-02-13T04:28:13;103490.03;;;0.92;100.00
11190;BME280;5651;50.926;4.718;2023-02-13T04:30:39;103483.97;;;0.92;100.00
11190;BME280;5651;50.926;4.718;2023-02-13T04:33:04;103489.00;;;0.90;100.00
11190;BME280;5651;50.926;4.718;2023-02-13T04:35:30;103489.75;;;0.89;100.00
11190;BME280;5651;50.926;4.718;2023-02-13T04:37:56;103495.66;;;0.88;100.00
11190;BME280;5651;50.926;4.718;2023-02-13T04:40:21;103489.53;;;0.86;100.00
11190;BME280;5651;50.926;4.718;2023-02-13T04:42:47;103494.69;;;0.86;100.00
11190;BME280;5651;50.926;4.718;2023-02-13T04:45:13;103499.66;;;0.85;100.00
11190;BME280;5651;50.926;4.718;2023-02-13T04:47:39;103498.69;;;0.83;100.00
11190;BME280;5651;50.926;4.718;2023-02-13T04:50:05;103493.53;;;0.83;100.00
11190;BME280;5651;50.926;4.718;2023-02-13T04:52:31;103492.53;;;0.81;100.00
11190;BME280;5651;50.926;4.718;2023-02-13T04:54:57;103494.16;;;0.80;100.00
11190;BME280;5651;50.926;4.718;2023-02-13T04:57:23;103488.81;;;0.77;100.00
11190;BME280;5651;50.926;4.718;2023-02-13T04:59:49;103485.22;;;0.75;100.00
11190;BME280;5651;50.926;4.718;2023-02-13T05:02:15;103486.00;;;0.74;100.00
11190;BME280;5651;50.926;4.718;2023-02-13T05:04:40;103487.31;;;0.69;100.00
11190;BME280;5651;50.926;4.718;2023-02-13T05:07:06;103486.28;;;0.67;100.00
11190;BME280;5651;50.926;4.718;2023-02-13T05:09:32;103480.78;;;0.62;100.00
11190;BME280;5651;50.926;4.718;2023-02-13T05:11:57;103481.34;;;0.58;100.00
11190;BME280;5651;50.926;4.718;2023-02-13T05:14:23;103485.44;;;0.56;100.00
11190;BME280;5651;50.926;4.718;2023-02-13T05:16:49;103490.97;;;0.50;100.00
11190;BME280;5651;50.926;4.718;2023-02-13T05:19:15;103488.84;;;0.44;100.00
11190;BME280;5651;50.926;4.718;2023-02-13T05:21:41;103490.88;;;0.38;100.00
11190;BME280;5651;50.926;4.718;2023-02-13T05:24:25;103494.63;;;0.31;100.00
11190;BME280;5651;50.926;4.718;2023-02-13T05:26:51;103482.97;;;0.25;100.00
11190;BME280;5651;50.926;4.718;2023-02-13T05:29:17;103490.28;;;0.20;100.00
11190;BME280;5651;50.926;4.718;2023-02-13T05:31:54;103493.28;;;0.14;100.00
11190;BME280;5651;50.926;4.718;2023-02-13T05:34:22;103488.66;;;0.10;100.00
11190;BME280;5651;50.926;4.718;2023-02-13T05:36:48;103491.75;;;0.06;100.00
11190;BME280;5651;50.926;4.718;2023-02-13T05:39:14;103498.31;;;0.03;100.00
11190;BME280;5651;50.926;4.718;2023-02-13T05:41:42;103499.56;;;-0.03;100.00
11190;BME280;5651;50.926;4.718;2023-02-13T05:44:08;103500.88;;;-0.08;100.00
11190;BME280;5651;50.926;4.718;2023-02-13T05:46:36;103502.28;;;-0.11;100.00
11190;BME280;5651;50.926;4.718;2023-02-13T05:49:03;103499.34;;;-0.16;100.00
11190;BME280;5651;50.926;4.718;2023-02-13T05:51:28;103500.63;;;-0.21;100.00
11190;BME280;5651;50.926;4.718;2023-02-13T05:53:54;103499.47;;;-0.25;100.00
11190;BME280;5651;50.926;4.718;2023-02-13T05:56:20;103499.09;;;-0.29;100.00
11190;BME280;5651;50.926;4.718;2023-02-13T05:58:46;103495.38;;;-0.33;100.00
11190;BME280;5651;50.926;4.718;2023-02-13T06:01:12;103502.94;;;-0.35;100.00
11190;BME280;5651;50.926;4.718;2023-02-13T06:03:38;103495.75;;;-0.39;100.00
11190;BME280;5651;50.926;4.718;2023-02-13T06:06:05;103495.53;;;-0.42;100.00
11190;BME280;5651;50.926;4.718;2023-02-13T06:08:30;103498.69;;;-0.44;100.00
11190;BME280;5651;50.926;4.718;2023-02-13T06:10:56;103503.59;;;-0.47;100.00
11190;BME280;5651;50.926;4.718;2023-02-13T06:13:22;103503.19;;;-0.52;100.00
11190;BME280;5651;50.926;4.718;2023-02-13T06:15:48;103502.16;;;-0.54;100.00
11190;BME280;5651;50.926;4.718;2023-02-13T06:18:15;103499.19;;;-0.59;100.00
11190;BME280;5651;50.926;4.718;2023-02-13T06:20:41;103512.66;;;-0.61;100.00
11190;BME280;5651;50.926;4.718;2023-02-13T06:23:07;103508.94;;;-0.65;100.00
11190;BME280;5651;50.926;4.718;2023-02-13T06:25:36;103512.13;;;-0.68;100.00
11190;BME280;5651;50.926;4.718;2023-02-13T06:28:03;103504.06;;;-0.72;100.00
11190;BME280;5651;50.926;4.718;2023-02-13T06:30:29;103501.22;;;-0.75;100.00
11190;BME280;5651;50.926;4.718;2023-02-13T06:32:55;103504.31;;;-0.80;100.00
11190;BME280;5651;50.926;4.718;2023-02-13T06:35:21;103504.94;;;-0.82;100.00
11190;BME280;5651;50.926;4.718;2023-02-13T06:37:47;103509.03;;;-0.84;100.00
11190;BME280;5651;50.926;4.718;2023-02-13T06:40:14;103508.78;;;-0.87;100.00
11190;BME280;5651;50.926;4.718;2023-02-13T06:42:41;103510.31;;;-0.89;100.00
11190;BME280;5651;50.926;4.718;2023-02-13T06:45:08;103506.72;;;-0.91;100.00
11190;BME280;5651;50.926;4.718;2023-02-13T06:47:33;103507.34;;;-0.94;100.00
11190;BME280;5651;50.926;4.718;2023-02-13T06:49:59;103495.19;;;-0.97;100.00
11190;BME280;5651;50.926;4.718;2023-02-13T06:52:25;103501.06;;;-0.98;100.00
11190;BME280;5651;50.926;4.718;2023-02-13T06:54:51;103501.72;;;-1.00;100.00
11190;BME280;5651;50.926;4.718;2023-02-13T06:57:16;103510.16;;;-1.01;100.00
11190;BME280;5651;50.926;4.718;2023-02-13T06:59:42;103508.47;;;-1.01;100.00
11190;BME280;5651;50.926;4.718;2023-02-13T07:02:12;103507.31;;;-1.04;100.00
11190;BME280;5651;50.926;4.718;2023-02-13T07:04:38;103514.09;;;-1.05;100.00
11190;BME280;5651;50.926;4.718;2023-02-13T07:07:04;103515.75;;;-1.05;100.00
11190;BME280;5651;50.926;4.718;2023-02-13T07:09:31;103511.28;;;-1.08;100.00
11190;BME280;5651;50.926;4.718;2023-02-13T07:11:57;103515.63;;;-1.07;100.00
11190;BME280;5651;50.926;4.718;2023-02-13T07:14:23;103521.66;;;-1.06;100.00
11190;BME280;5651;50.926;4.718;2023-02-13T07:16:48;103516.38;;;-1.08;100.00
11190;BME280;5651;50.926;4.718;2023-02-13T07:19:14;103514.88;;;-1.06;100.00
11190;BME280;5651;50.926;4.718;2023-02-13T07:21:40;103515.91;;;-1.04;100.00
11190;BME280;5651;50.926;4.718;2023-02-13T07:24:06;103511.78;;;-1.02;100.00
11190;BME280;5651;50.926;4.718;2023-02-13T07:26:31;103510.28;;;-1.00;100.00
11190;BME280;5651;50.926;4.718;2023-02-13T07:28:57;103508.75;;;-0.98;100.00
11190;BME280;5651;50.926;4.718;2023-02-13T07:31:23;103514.16;;;-0.94;100.00
11190;BME280;5651;50.926;4.718;2023-02-13T08:26:37;103533.28;;;-0.29;100.00
11190;BME280;5651;50.926;4.718;2023-02-13T08:29:04;103531.13;;;-0.14;100.00
11190;BME280;5651;50.926;4.718;2023-02-13T08:31:30;103526.22;;;-0.01;100.00
11190;BME280;5651;50.926;4.718;2023-02-13T08:33:56;103527.38;;;0.13;100.00
11190;BME280;5651;50.926;4.718;2023-02-13T08:36:23;103524.25;;;0.28;100.00
11190;BME280;5651;50.926;4.718;2023-02-13T08:38:49;103526.94;;;0.40;100.00
11190;BME280;5651;50.926;4.718;2023-02-13T08:41:15;103523.69;;;0.53;100.00
11190;BME280;5651;50.926;4.718;2023-02-13T08:43:43;103527.34;;;0.67;100.00
11190;BME280;5651;50.926;4.718;2023-02-13T08:46:09;103524.84;;;0.78;100.00
11190;BME280;5651;50.926;4.718;2023-02-13T08:48:35;103527.50;;;0.90;100.00
11190;BME280;5651;50.926;4.718;2023-02-13T08:51:05;103526.53;;;1.00;100.00
11190;BME280;5651;50.926;4.718;2023-02-13T08:53:33;103530.84;;;1.12;100.00
11190;BME280;5651;50.926;4.718;2023-02-13T08:55:58;103536.81;;;1.22;100.00
11190;BME280;5651;50.926;4.718;2023-02-13T08:58:25;103520.44;;;1.32;100.00
11190;BME280;5651;50.926;4.718;2023-02-13T09:00:51;103525.63;;;1.44;100.00
11190;BME280;5651;50.926;4.718;2023-02-13T09:03:16;103522.44;;;1.58;100.00
11190;BME280;5651;50.926;4.718;2023-02-13T09:05:42;103528.50;;;1.71;100.00
11190;BME280;5651;50.926;4.718;2023-02-13T09:08:08;103517.25;;;1.81;100.00
11190;BME280;5651;50.926;4.718;2023-02-13T09:10:37;103523.97;;;1.90;100.00
11190;BME280;5651;50.926;4.718;2023-02-13T09:13:03;103525.56;;;2.00;100.00
11190;BME280;5651;50.926;4.718;2023-02-13T09:15:30;103522.75;;;2.09;100.00
11190;BME280;5651;50.926;4.718;2023-02-13T09:17:56;103521.88;;;2.20;100.00
11190;BME280;5651;50.926;4.718;2023-02-13T09:20:22;103525.44;;;2.34;100.00
11190;BME280;5651;50.926;4.718;2023-02-13T09:22:49;103523.53;;;2.44;100.00
11190;BME280;5651;50.926;4.718;2023-02-13T09:25:16;103532.03;;;2.54;100.00
11190;BME280;5651;50.926;4.718;2023-02-13T09:27:44;103526.78;;;2.65;100.00
11190;BME280;5651;50.926;4.718;2023-02-13T09:30:12;103527.44;;;2.74;100.00
11190;BME280;5651;50.926;4.718;2023-02-13T09:32:49;103521.38;;;2.85;100.00
11190;BME280;5651;50.926;4.718;2023-02-13T09:35:16;103530.75;;;2.97;100.00
11190;BME280;5651;50.926;4.718;2023-02-13T09:37:42;103528.03;;;3.07;100.00
11190;BME280;5651;50.926;4.718;2023-02-13T09:40:25;103526.31;;;3.20;100.00
11190;BME280;5651;50.926;4.718;2023-02-13T09:43:09;103519.44;;;3.32;100.00
11190;BME280;5651;50.926;4.718;2023-02-13T09:45:37;103529.78;;;3.45;100.00
11190;BME280;5651;50.926;4.718;2023-02-13T09:48:05;103522.78;;;3.56;100.00
11190;BME280;5651;50.926;4.718;2023-02-13T09:50:31;103528.88;;;3.70;100.00
11190;BME280;5651;50.926;4.718;2023-02-13T09:53:01;103525.31;;;3.81;100.00
11190;BME280;5651;50.926;4.718;2023-02-13T09:55:54;103519.28;;;3.94;100.00
11190;BME280;5651;50.926;4.718;2023-02-13T09:58:42;103522.72;;;4.07;100.00
11190;BME280;5651;50.926;4.718;2023-02-13T10:03:46;103524.19;;;4.30;100.00
11190;BME280;5651;50.926;4.718;2023-02-13T10:06:25;103518.94;;;4.42;100.00
11190;BME280;5651;50.926;4.718;2023-02-13T10:09:00;103522.22;;;4.53;100.00
11190;BME280;5651;50.926;4.718;2023-02-13T10:11:50;103525.75;;;4.68;100.00
11190;BME280;5651;50.926;4.718;2023-02-13T10:14:26;103519.88;;;4.84;100.00
11190;BME280;5651;50.926;4.718;2023-02-13T10:17:21;103518.94;;;4.97;100.00
11190;BME280;5651;50.926;4.718;2023-02-13T10:19:52;103511.25;;;5.12;100.00
11190;BME280;5651;50.926;4.718;2023-02-13T10:22:48;103509.50;;;5.26;100.00
11190;BME280;5651;50.926;4.718;2023-02-13T10:25:20;103505.16;;;5.40;100.00
11190;BME280;5651;50.926;4.718;2023-02-13T10:27:59;103509.19;;;5.50;100.00
11190;BME280;5651;50.926;4.718;2023-02-13T10:30:31;103503.84;;;5.62;100.00
11190;BME280;5651;50.926;4.718;2023-02-13T10:33:16;103503.97;;;5.78;100.00
11190;BME280;5651;50.926;4.718;2023-02-13T10:38:30;103503.53;;;6.00;100.00
11190;BME280;5651;50.926;4.718;2023-02-13T10:46:32;103502.47;;;6.43;100.00
11190;BME280;5651;50.926;4.718;2023-02-13T10:55:28;103491.16;;;6.89;100.00
11190;BME280;5651;50.926;4.718;2023-02-13T11:02:57;103483.94;;;7.33;100.00
11190;BME280;5651;50.926;4.718;2023-02-13T11:05:58;103483.53;;;7.42;100.00
11190;BME280;5651;50.926;4.718;2023-02-13T11:08:30;103479.94;;;7.56;100.00
11190;BME280;5651;50.926;4.718;2023-02-13T11:10:57;103476.34;;;7.71;100.00
11190;BME280;5651;50.926;4.718;2023-02-13T11:13:26;103480.34;;;7.82;100.00
11190;BME280;5651;50.926;4.718;2023-02-13T11:16:06;103472.03;;;7.89;100.00
11190;BME280;5651;50.926;4.718;2023-02-13T11:18:34;103466.56;;;8.01;100.00
11190;BME280;5651;50.926;4.718;2023-02-13T11:21:12;103467.91;;;8.11;100.00
11190;BME280;5651;50.926;4.718;2023-02-13T11:23:44;103471.97;;;8.24;100.00
11190;BME280;5651;50.926;4.718;2023-02-13T11:26:21;103460.47;;;8.37;100.00
11190;BME280;5651;50.926;4.718;2023-02-13T11:28:55;103456.69;;;8.48;100.00
11190;BME280;5651;50.926;4.718;2023-02-13T11:31:30;103448.16;;;8.70;100.00
11190;BME280;5651;50.926;4.718;2023-02-13T11:33:57;103447.22;;;8.68;100.00
11190;BME280;5651;50.926;4.718;2023-02-13T11:36:31;103439.72;;;8.75;100.00
11190;BME280;5651;50.926;4.718;2023-02-13T11:39:04;103442.03;;;8.88;100.00
11190;BME280;5651;50.926;4.718;2023-02-13T11:41:42;103443.19;;;8.95;100.00
11190;BME280;5651;50.926;4.718;2023-02-13T11:44:24;103439.34;;;9.06;100.00
11190;BME280;5651;50.926;4.718;2023-02-13T11:46:53;103440.56;;;9.14;100.00
11190;BME280;5651;50.926;4.718;2023-02-13T11:49:27;103436.03;;;9.30;100.00
11190;BME280;5651;50.926;4.718;2023-02-13T11:52:01;103433.00;;;9.40;100.00
11190;BME280;5651;50.926;4.718;2023-02-13T11:54:41;103429.13;;;9.51;100.00
11190;BME280;5651;50.926;4.718;2023-02-13T11:57:21;103427.69;;;9.58;100.00
11190;BME280;5651;50.926;4.718;2023-02-13T11:59:49;103428.00;;;9.66;100.00
11190;BME280;5651;50.926;4.718;2023-02-13T12:02:21;103419.75;;;9.76;100.00
11190;BME280;5651;50.926;4.718;2023-02-13T12:05:13;103411.59;;;9.90;100.00
11190;BME280;5651;50.926;4.718;2023-02-13T12:07:40;103417.16;;;9.99;100.00
11190;BME280;5651;50.926;4.718;2023-02-13T12:10:23;103412.47;;;10.36;100.00
11190;BME280;5651;50.926;4.718;2023-02-13T12:12:54;103399.56;;;11.10;100.00
11190;BME280;5651;50.926;4.718;2023-02-13T12:15:27;103401.88;;;11.54;100.00
11190;BME280;5651;50.926;4.718;2023-02-13T12:18:15;103394.00;;;12.36;100.00
11190;BME280;5651;50.926;4.718;2023-02-13T12:23:25;103389.66;;;14.09;100.00
11190;BME280;5651;50.926;4.718;2023-02-13T12:26:51;103382.34;;;14.78;100.00
11190;BME280;5651;50.926;4.718;2023-02-13T12:29:41;103388.94;;;15.56;100.00
11190;BME280;5651;50.926;4.718;2023-02-13T12:31:58;103374.06;;;16.18;96.50
11190;BME280;5651;50.926;4.718;2023-02-13T12:45:51;103372.22;;;18.01;83.81
11190;BME280;5651;50.926;4.718;2023-02-13T12:53:22;103371.66;;;19.00;78.21
11190;BME280;5651;50.926;4.718;2023-02-13T13:01:58;103366.31;;;19.65;68.88
11190;BME280;5651;50.926;4.718;2023-02-13T13:04:38;103363.66;;;19.85;68.37
11190;BME280;5651;50.926;4.718;2023-02-13T13:09:55;103352.56;;;20.87;68.99
11190;BME280;5651;50.926;4.718;2023-02-13T13:18:13;103348.28;;;21.69;65.30
11190;BME280;5651;50.926;4.718;2023-02-13T13:21:09;103353.22;;;22.02;64.77
11190;BME280;5651;50.926;4.718;2023-02-13T13:23:59;103347.69;;;22.20;64.09
11190;BME280;5651;50.926;4.718;2023-02-13T13:29:00;103339.88;;;22.06;62.16
11190;BME280;5651;50.926;4.718;2023-02-13T13:31:29;103341.78;;;21.96;57.45
11190;BME280;5651;50.926;4.718;2023-02-13T13:33:59;103334.31;;;22.26;57.39
11190;BME280;5651;50.926;4.718;2023-02-13T13:36:51;103330.44;;;21.80;55.86
11190;BME280;5651;50.926;4.718;2023-02-13T13:50:03;103325.44;;;22.26;52.83
11190;BME280;5651;50.926;4.718;2023-02-13T13:52:34;103331.44;;;22.43;52.03
11190;BME280;5651;50.926;4.718;2023-02-13T13:55:03;103323.78;;;22.19;51.82
11190;BME280;5651;50.926;4.718;2023-02-13T14:02:48;103319.19;;;22.89;53.28
11190;BME280;5651;50.926;4.718;2023-02-13T14:07:48;103331.63;;;22.28;49.79
11190;BME280;5651;50.926;4.718;2023-02-13T14:28:37;103304.84;;;23.94;50.75
11190;BME280;5651;50.926;4.718;2023-02-13T14:31:30;103294.28;;;23.87;48.38
11190;BME280;5651;50.926;4.718;2023-02-13T14:36:33;103298.94;;;23.32;46.96
11190;BME280;5651;50.926;4.718;2023-02-13T14:39:02;103296.41;;;22.74;47.22
11190;BME280;5651;50.926;4.718;2023-02-13T14:41:42;103294.78;;;22.02;46.18
11190;BME280;5651;50.926;4.718;2023-02-13T14:46:48;103289.63;;;23.08;47.42
11190;BME280;5651;50.926;4.718;2023-02-13T14:51:46;103284.97;;;22.69;47.92
11190;BME280;5651;50.926;4.718;2023-02-13T14:54:22;103283.47;;;22.51;46.68
11190;BME280;5651;50.926;4.718;2023-02-13T14:56:52;103274.38;;;22.05;46.56
11190;BME280;5651;50.926;4.718;2023-02-13T14:59:23;103266.88;;;21.69;48.35
11190;BME280;5651;50.926;4.718;2023-02-13T15:02:11;103263.56;;;22.17;47.76
11190;BME280;5651;50.926;4.718;2023-02-13T15:05:14;103265.47;;;22.11;46.65
11190;BME280;5651;50.926;4.718;2023-02-13T15:07:55;103264.88;;;21.89;47.30
11190;BME280;5651;50.926;4.718;2023-02-13T15:12:59;103259.09;;;22.23;48.01
11190;BME280;5651;50.926;4.718;2023-02-13T15:18:01;103262.22;;;21.89;47.54
11190;BME280;5651;50.926;4.718;2023-02-13T15:20:29;103252.78;;;21.67;47.19
11190;BME280;5651;50.926;4.718;2023-02-13T15:22:57;103255.09;;;21.16;47.09
11190;BME280;5651;50.926;4.718;2023-02-13T15:27:54;103249.31;;;20.73;48.62
11190;BME280;5651;50.926;4.718;2023-02-13T15:30:28;103250.19;;;20.72;48.51
11190;BME280;5651;50.926;4.718;2023-02-13T15:32:57;103254.69;;;20.59;49.94
11190;BME280;5651;50.926;4.718;2023-02-13T15:35:30;103261.19;;;20.15;49.26
11190;BME280;5651;50.926;4.718;2023-02-13T15:37:56;103253.34;;;20.01;50.11
11190;BME280;5651;50.926;4.718;2023-02-13T15:40:32;103263.22;;;19.46;50.11
11190;BME280;5651;50.926;4.718;2023-02-13T15:43:02;103251.72;;;19.58;49.52
11190;BME280;5651;50.926;4.718;2023-02-13T15:45:28;103251.63;;;19.91;52.09
11190;BME280;5651;50.926;4.718;2023-02-13T15:47:55;103265.78;;;19.70;49.45
11190;BME280;5651;50.926;4.718;2023-02-13T15:50:31;103262.25;;;19.78;49.83
11190;BME280;5651;50.926;4.718;2023-02-13T15:52:59;103263.22;;;19.46;48.94
11190;BME280;5651;50.926;4.718;2023-02-13T15:55:29;103259.78;;;19.26;49.36
11190;BME280;5651;50.926;4.718;2023-02-13T15:57:57;103264.16;;;19.27;50.41
11190;BME280;5651;50.926;4.718;2023-02-13T16:00:29;103266.81;;;19.11;50.48
11190;BME280;5651;50.926;4.718;2023-02-13T16:02:57;103272.09;;;18.82;50.53
11190;BME280;5651;50.926;4.718;2023-02-13T16:05:24;103272.97;;;18.73;51.06
11190;BME280;5651;50.926;4.718;2023-02-13T16:07:57;103265.91;;;18.35;50.33
11190;BME280;5651;50.926;4.718;2023-02-13T16:10:27;103272.88;;;18.10;51.24
11190;BME280;5651;50.926;4.718;2023-02-13T16:12:54;103269.19;;;17.75;51.06
11190;BME280;5651;50.926;4.718;2023-02-13T16:15:21;103268.19;;;17.50;51.01
11190;BME280;5651;50.926;4.718;2023-02-13T16:17:48;103274.13;;;17.16;51.64
11190;BME280;5651;50.926;4.718;2023-02-13T16:20:23;103283.44;;;16.77;51.83
11190;BME280;5651;50.926;4.718;2023-02-13T16:22:57;103273.41;;;16.36;52.61
11190;BME280;5651;50.926;4.718;2023-02-13T16:25:35;103274.78;;;16.01;53.36
11190;BME280;5651;50.926;4.718;2023-02-13T16:28:22;103276.97;;;15.67;54.26
11190;BME280;5651;50.926;4.718;2023-02-13T16:31:01;103282.66;;;15.36;55.06
11190;BME280;5651;50.926;4.718;2023-02-13T16:33:41;103277.84;;;15.06;55.94
11190;BME280;5651;50.926;4.718;2023-02-13T16:38:41;103278.72;;;14.57;56.39
11190;BME280;5651;50.926;4.718;2023-02-13T16:56:50;103287.66;;;12.36;60.65
11190;BME280;5651;50.926;4.718;2023-02-13T17:02:17;103295.69;;;11.82;61.26
11190;BME280;5651;50.926;4.718;2023-02-13T17:04:49;103295.75;;;11.56;61.76
11190;BME280;5651;50.926;4.718;2023-02-13T17:07:18;103288.88;;;11.31;62.03
11190;BME280;5651;50.926;4.718;2023-02-13T17:09:44;103295.09;;;11.08;62.93
11190;BME280;5651;50.926;4.718;2023-02-13T17:12:17;103288.16;;;10.82;63.64